Jhang Weather



Jhang's Current Weather

Temprature 12.23o smoke

smoke

Rain: 0 %

Min Temprature10o
Max Temprature14.44o
Humidity76
Wind Speed2.1 m/h
Sun Rise06:24:41
Sun Set17:21:03
Current Time: 28-Oct-2020 04:42:10
Lat/Lon: 33.67, 72.7




Jhang's Geo Location



Jhang's Weather Forecast

Time Overall Temp Min Temp Max Temp Humidity Wind Speed Rain
28-Oct-2020 (Wed)
05:00:00 clear sky 13.330 13.330 14.480 55 1.31 m/h 0 %
08:00:00 clear sky 17.860 17.860 19.410 36 1.45 m/h 0 %
11:00:00 clear sky 25.060 25.060 25.940 20 1.42 m/h 0 %
14:00:00 clear sky 28.600 28.600 28.730 14 1.42 m/h 0 %
17:00:00 clear sky 23.270 23.270 23.270 21 1.24 m/h 0 %
20:00:00 clear sky 19.170 19.170 19.170 26 2 m/h 0 %
23:00:00 clear sky 18.520 18.520 18.520 26 2.69 m/h 0 %
29-Oct-2020 (Thu)
02:00:00 clear sky 16.490 16.490 16.490 29 1.8 m/h 0 %
05:00:00 clear sky 14.620 14.620 14.620 33 1.26 m/h 0 %
08:00:00 clear sky 18.910 18.910 18.910 26 1.89 m/h 0 %
11:00:00 few clouds 25.940 25.940 25.940 17 2.74 m/h 0 %
14:00:00 clear sky 28.430 28.430 28.430 15 3.38 m/h 0 %
17:00:00 clear sky 23.620 23.620 23.620 20 2.5 m/h 0 %
20:00:00 clear sky 19.380 19.380 19.380 26 1.97 m/h 0 %
23:00:00 clear sky 17.390 17.390 17.390 29 2.23 m/h 0 %
30-Oct-2020 (Fri)
02:00:00 clear sky 15.410 15.410 15.410 33 1.98 m/h 0 %
05:00:00 clear sky 13.780 13.780 13.780 36 2.14 m/h 0 %
08:00:00 clear sky 17.340 17.340 17.340 29 2.5 m/h 0 %
11:00:00 clear sky 25.530 25.530 25.530 18 3.97 m/h 0 %
14:00:00 clear sky 28.570 28.570 28.570 14 4.39 m/h 0 %
17:00:00 clear sky 23.060 23.060 23.060 20 2.94 m/h 0 %
20:00:00 clear sky 17.580 17.580 17.580 26 1.36 m/h 0 %
23:00:00 clear sky 15.930 15.930 15.930 30 1.85 m/h 0 %
31-Oct-2020 (Sat)
02:00:00 clear sky 14.760 14.760 14.760 32 1.87 m/h 0 %
05:00:00 clear sky 13.520 13.520 13.520 35 2.22 m/h 0 %
08:00:00 clear sky 17.110 17.110 17.110 28 2.25 m/h 0 %
11:00:00 clear sky 25.220 25.220 25.220 17 3.93 m/h 0 %
14:00:00 clear sky 28.350 28.350 28.350 13 4.88 m/h 0 %
17:00:00 clear sky 23.030 23.030 23.030 19 2.89 m/h 0 %
20:00:00 clear sky 17.490 17.490 17.490 25 1.23 m/h 0 %
23:00:00 clear sky 15.940 15.940 15.940 28 1.42 m/h 0 %
01-Nov-2020 (Sun)
02:00:00 clear sky 14.000 14.000 14.000 32 1.36 m/h 0 %
05:00:00 clear sky 12.880 12.880 12.880 34 1.71 m/h 0 %
08:00:00 clear sky 17.720 17.720 17.720 26 1.78 m/h 0 %
11:00:00 clear sky 25.170 25.170 25.170 16 3.25 m/h 0 %
14:00:00 clear sky 28.500 28.500 28.500 13 4.35 m/h 0 %
17:00:00 clear sky 22.660 22.660 22.660 19 2.45 m/h 0 %
20:00:00 clear sky 17.460 17.460 17.460 25 0.85 m/h 0 %
23:00:00 clear sky 15.880 15.880 15.880 28 0.88 m/h 0 %
02-Nov-2020 (Mon)
02:00:00 clear sky 14.650 14.650 14.650 30 1.62 m/h 0 %

Famous Cities (60)